createdAt,value
2019-05-29T00:00:43.442Z,0.00
2019-05-29T00:01:43.421Z,0.00
2019-05-29T00:02:43.412Z,0.00
2019-05-29T00:03:43.396Z,0.00
2019-05-29T00:04:43.442Z,0.00
2019-05-29T00:05:43.376Z,0.00
2019-05-29T00:06:43.360Z,0.00
2019-05-29T00:07:43.485Z,0.00
2019-05-29T00:08:43.346Z,0.00
2019-05-29T00:09:43.328Z,0.00
2019-05-29T00:10:43.317Z,0.00
2019-05-29T00:11:43.307Z,0.00
2019-05-29T00:12:43.293Z,0.00
2019-05-29T00:13:43.332Z,0.00
2019-05-29T00:14:43.277Z,0.00
2019-05-29T00:15:43.260Z,0.00
2019-05-29T00:16:43.295Z,0.00
2019-05-29T00:17:43.237Z,0.00
2019-05-29T00:18:43.478Z,0.00
2019-05-29T00:19:43.227Z,0.00
2019-05-29T00:20:43.206Z,0.00
2019-05-29T00:21:43.192Z,0.00
2019-05-29T00:22:43.181Z,0.00
2019-05-29T00:23:43.170Z,0.00
2019-05-29T00:24:43.209Z,0.00
2019-05-29T00:25:43.151Z,0.00
2019-05-29T00:26:43.136Z,0.00
2019-05-29T00:27:43.126Z,0.00
2019-05-29T00:28:43.113Z,0.00
2019-05-29T00:29:43.157Z,0.00
2019-05-29T00:30:43.090Z,0.00
2019-05-29T00:31:43.084Z,0.00
2019-05-29T00:32:43.095Z,0.00
2019-05-29T00:33:43.064Z,0.00
2019-05-29T00:34:43.045Z,0.00
2019-05-29T00:35:43.083Z,0.00
2019-05-29T00:36:43.282Z,0.00
2019-05-29T00:37:43.011Z,0.00
2019-05-29T00:38:42.999Z,0.00
2019-05-29T00:39:42.990Z,0.00
2019-05-29T00:40:42.977Z,0.00
2019-05-29T00:41:43.017Z,0.00
2019-05-29T00:42:43.009Z,0.00
2019-05-29T00:43:42.944Z,0.00
2019-05-29T00:44:42.932Z,0.00
2019-05-29T00:45:42.919Z,0.00
2019-05-29T00:46:42.907Z,0.00
2019-05-29T00:47:42.900Z,0.00
2019-05-29T00:48:42.929Z,0.00
2019-05-29T00:49:42.877Z,0.00
2019-05-29T00:50:42.915Z,0.00
2019-05-29T00:51:42.851Z,0.00
2019-05-29T00:52:42.841Z,0.00
2019-05-29T00:53:42.832Z,0.00
2019-05-29T00:54:42.820Z,0.00
2019-05-29T00:55:42.865Z,0.00
2019-05-29T00:56:42.795Z,0.00
2019-05-29T00:57:42.836Z,0.00
2019-05-29T00:58:42.772Z,0.00
2019-05-29T00:59:42.762Z,0.00
2019-05-29T01:00:42.749Z,0.00
2019-05-29T01:01:42.738Z,0.00
2019-05-29T01:02:42.791Z,0.00
2019-05-29T01:03:42.766Z,0.00
2019-05-29T01:04:42.726Z,0.00
2019-05-29T01:05:42.697Z,0.00
2019-05-29T01:06:42.683Z,0.00
2019-05-29T01:07:42.670Z,0.00
2019-05-29T01:08:42.658Z,0.00
2019-05-29T01:09:42.693Z,0.00
2019-05-29T01:10:42.636Z,0.00
2019-05-29T01:11:42.641Z,0.00
2019-05-29T01:12:42.655Z,0.00
2019-05-29T01:13:42.602Z,0.00
2019-05-29T01:14:50.082Z,0.00
2019-05-29T01:15:43.578Z,0.00
2019-05-29T01:16:42.568Z,0.00
2019-05-29T01:17:42.604Z,0.00
2019-05-29T01:18:42.544Z,0.00
2019-05-29T01:19:42.533Z,0.00
2019-05-29T01:20:42.523Z,0.00
2019-05-29T01:21:42.538Z,0.00
2019-05-29T01:22:42.499Z,0.00
2019-05-29T01:23:42.538Z,0.00
2019-05-29T01:24:42.475Z,0.00
2019-05-29T01:25:42.471Z,0.00
2019-05-29T01:26:42.460Z,0.00
2019-05-29T01:27:42.484Z,0.00
2019-05-29T01:28:42.436Z,0.00
2019-05-29T01:29:42.420Z,0.00
2019-05-29T01:30:42.407Z,0.00
2019-05-29T01:31:42.395Z,0.00
2019-05-29T01:32:42.431Z,0.00
2019-05-29T01:33:42.377Z,0.00
2019-05-29T01:34:42.406Z,0.00
2019-05-29T01:35:42.402Z,0.00
2019-05-29T01:36:42.402Z,0.00
2019-05-29T01:37:42.328Z,0.00
2019-05-29T01:38:42.316Z,0.00
2019-05-29T01:39:42.305Z,0.00
2019-05-29T01:40:42.293Z,0.00
2019-05-29T01:41:42.282Z,0.00
2019-05-29T01:42:42.319Z,0.00
2019-05-29T01:43:42.258Z,0.00
2019-05-29T01:44:42.251Z,0.00
2019-05-29T01:45:42.284Z,0.00
2019-05-29T01:46:42.276Z,0.00
2019-05-29T01:47:42.216Z,0.00
2019-05-29T01:48:42.203Z,0.00
2019-05-29T01:49:42.192Z,0.00
2019-05-29T01:50:42.204Z,0.00
2019-05-29T01:51:42.169Z,0.00
2019-05-29T01:52:42.207Z,0.00
2019-05-29T01:53:42.145Z,0.00
2019-05-29T01:54:42.133Z,0.00
2019-05-29T01:55:42.127Z,0.00
2019-05-29T01:56:42.161Z,0.00
2019-05-29T01:57:42.102Z,0.00
2019-05-29T01:58:42.088Z,0.00
2019-05-29T01:59:42.127Z,0.00
2019-05-29T02:00:42.068Z,0.00
2019-05-29T02:01:42.099Z,0.00
2019-05-29T02:02:42.044Z,0.00
2019-05-29T02:03:42.078Z,0.00
2019-05-29T02:04:42.025Z,0.00
2019-05-29T02:05:42.015Z,0.00
2019-05-29T02:06:42.001Z,0.00
2019-05-29T02:07:41.987Z,0.00
2019-05-29T02:08:42.025Z,0.00
2019-05-29T02:09:41.965Z,0.00
2019-05-29T02:10:41.954Z,0.00
2019-05-29T02:11:41.984Z,0.00
2019-05-29T02:12:41.931Z,0.00
2019-05-29T02:13:41.920Z,0.00
2019-05-29T02:14:41.911Z,0.00
2019-05-29T02:15:41.897Z,0.00
2019-05-29T02:16:41.885Z,0.00
2019-05-29T02:17:41.916Z,0.00
2019-05-29T02:18:41.863Z,0.00
2019-05-29T02:19:41.854Z,0.00
2019-05-29T02:20:41.882Z,0.00
2019-05-29T02:21:41.828Z,0.00
2019-05-29T02:22:41.859Z,0.00
2019-05-29T02:23:41.808Z,0.00
2019-05-29T02:24:41.794Z,0.00
2019-05-29T02:25:41.786Z,0.00
2019-05-29T02:26:41.773Z,0.00
2019-05-29T02:27:41.760Z,0.00
2019-05-29T02:28:41.793Z,0.00
2019-05-29T02:29:41.789Z,0.00
2019-05-29T02:30:41.727Z,0.00
2019-05-29T02:31:41.721Z,0.00
2019-05-29T02:32:41.703Z,0.00
2019-05-29T02:33:41.693Z,0.00
2019-05-29T02:34:41.689Z,0.00
2019-05-29T02:35:41.712Z,0.00
2019-05-29T02:36:41.703Z,0.00
2019-05-29T02:37:41.653Z,0.00
2019-05-29T02:38:41.636Z,0.00
2019-05-29T02:39:41.629Z,0.00
2019-05-29T02:40:41.613Z,0.00
2019-05-29T02:41:41.642Z,0.00
2019-05-29T02:42:41.597Z,0.00
2019-05-29T02:43:41.610Z,0.00
2019-05-29T02:44:41.576Z,0.00
2019-05-29T02:45:53.628Z,4.00
2019-05-29T02:46:42.584Z,4.00
2019-05-29T02:47:41.533Z,4.00
2019-05-29T02:48:41.563Z,4.00
2019-05-29T02:49:41.509Z,0.00
2019-05-29T02:50:41.497Z,4.00
2019-05-29T02:51:41.491Z,4.00
2019-05-29T02:52:41.476Z,4.00
2019-05-29T02:53:41.467Z,4.00
2019-05-29T02:54:41.493Z,4.00
2019-05-29T02:55:41.441Z,8.00
2019-05-29T02:56:42.573Z,8.00
2019-05-29T02:57:41.418Z,8.00
2019-05-29T02:58:41.453Z,8.00
2019-05-29T02:59:41.395Z,8.00
2019-05-29T03:00:41.386Z,12.00
2019-05-29T03:01:41.380Z,12.00
2019-05-29T03:02:41.404Z,16.00
2019-05-29T03:03:41.353Z,20.00
2019-05-29T03:04:41.338Z,24.00
2019-05-29T03:05:41.337Z,24.00
2019-05-29T03:06:41.317Z,24.00
2019-05-29T03:07:41.306Z,28.00
2019-05-29T03:08:41.332Z,32.00
2019-05-29T03:09:41.287Z,40.00
2019-05-29T03:10:41.270Z,44.00
2019-05-29T03:11:41.323Z,52.00
2019-05-29T03:12:41.252Z,56.00
2019-05-29T03:13:41.245Z,64.00
2019-05-29T03:14:41.267Z,68.00
2019-05-29T03:15:41.215Z,76.00
2019-05-29T03:16:41.206Z,88.00
2019-05-29T03:17:41.193Z,96.00
2019-05-29T03:18:41.180Z,108.00
2019-05-29T03:19:41.211Z,120.00
2019-05-29T03:20:41.158Z,132.00
2019-05-29T03:21:41.145Z,144.00
2019-05-29T03:22:41.135Z,164.00
2019-05-29T03:23:41.127Z,176.00
2019-05-29T03:24:41.158Z,196.00
2019-05-29T03:25:41.103Z,216.00
2019-05-29T03:26:41.092Z,232.00
2019-05-29T03:27:41.127Z,256.00
2019-05-29T03:28:41.107Z,272.00
2019-05-29T03:29:41.094Z,300.00
2019-05-29T03:30:45.778Z,320.00
2019-05-29T03:31:47.189Z,348.00
2019-05-29T03:32:47.576Z,376.00
2019-05-29T03:33:49.168Z,400.00
2019-05-29T03:34:46.726Z,428.00
2019-05-29T03:35:47.678Z,456.00
2019-05-29T03:36:47.886Z,488.00
2019-05-29T03:37:41.963Z,516.00
2019-05-29T03:38:40.963Z,548.00
2019-05-29T03:39:40.985Z,584.00
2019-05-29T03:40:40.936Z,616.00
2019-05-29T03:41:40.959Z,652.00
2019-05-29T03:42:40.909Z,688.00
2019-05-29T03:43:40.937Z,724.00
2019-05-29T03:44:40.889Z,760.00
2019-05-29T03:45:40.916Z,800.00
2019-05-29T03:46:45.711Z,840.00
2019-05-29T03:47:41.866Z,876.00
2019-05-29T03:48:40.879Z,916.00
2019-05-29T03:49:40.840Z,960.00
2019-05-29T03:50:40.880Z,1000.00
2019-05-29T03:51:40.813Z,1044.00
2019-05-29T03:52:40.804Z,1084.00
2019-05-29T03:53:40.831Z,1124.00
2019-05-29T03:54:40.781Z,1172.00
2019-05-29T03:55:40.762Z,1212.00
2019-05-29T03:56:40.763Z,1260.00
2019-05-29T03:57:40.737Z,1300.00
2019-05-29T03:58:40.766Z,1344.00
2019-05-29T03:59:40.760Z,1392.00
2019-05-29T04:00:45.895Z,1428.00
2019-05-29T04:01:41.692Z,1472.00
2019-05-29T04:02:40.682Z,1512.00
2019-05-29T04:03:40.723Z,1556.00
2019-05-29T04:04:40.666Z,1600.00
2019-05-29T04:05:40.649Z,1640.00
2019-05-29T04:06:40.638Z,1684.00
2019-05-29T04:07:40.624Z,1724.00
2019-05-29T04:08:40.615Z,1768.00
2019-05-29T04:09:40.642Z,1812.00
2019-05-29T04:10:40.631Z,1852.00
2019-05-29T04:11:40.580Z,1888.00
2019-05-29T04:12:40.589Z,1928.00
2019-05-29T04:13:40.602Z,1968.00
2019-05-29T04:14:40.549Z,2008.00
2019-05-29T04:15:40.538Z,2048.00
2019-05-29T04:16:58.534Z,2084.00
2019-05-29T04:17:41.510Z,2116.00
2019-05-29T04:18:40.500Z,2152.00
2019-05-29T04:19:40.533Z,2184.00
2019-05-29T04:20:40.480Z,2220.00
2019-05-29T04:21:40.463Z,2248.00
2019-05-29T04:22:40.454Z,2280.00
2019-05-29T04:23:40.450Z,2312.00
2019-05-29T04:24:40.433Z,2344.00
2019-05-29T04:25:43.077Z,2376.00
2019-05-29T04:26:40.408Z,2412.00
2019-05-29T04:27:40.439Z,2444.00
2019-05-29T04:28:40.391Z,2480.00
2019-05-29T04:29:40.376Z,2512.00
2019-05-29T04:30:40.366Z,2540.00
2019-05-29T04:31:40.352Z,2572.00
2019-05-29T04:32:40.379Z,2600.00
2019-05-29T04:33:40.386Z,2624.00
2019-05-29T04:34:40.321Z,2656.00
2019-05-29T04:35:40.347Z,2680.00
2019-05-29T04:36:40.296Z,2708.00
2019-05-29T04:37:40.357Z,2736.00
2019-05-29T04:38:40.564Z,2768.00
2019-05-29T04:39:40.265Z,2796.00
2019-05-29T04:40:40.296Z,2824.00
2019-05-29T04:41:40.243Z,2856.00
2019-05-29T04:42:40.366Z,2884.00
2019-05-29T04:43:40.216Z,2912.00
2019-05-29T04:44:41.127Z,2940.00
2019-05-29T04:45:40.353Z,2960.00
2019-05-29T04:46:40.681Z,2988.00
2019-05-29T04:47:40.170Z,3012.00
2019-05-29T04:48:40.577Z,3036.00
2019-05-29T04:49:40.191Z,3060.00
2019-05-29T04:50:40.800Z,3088.00
2019-05-29T04:51:40.180Z,3108.00
2019-05-29T04:52:40.556Z,3132.00
2019-05-29T04:53:40.182Z,3156.00
2019-05-29T04:54:40.350Z,3184.00
2019-05-29T04:55:40.078Z,3208.00
2019-05-29T04:56:40.074Z,3236.00
2019-05-29T04:57:40.096Z,3256.00
2019-05-29T04:58:40.045Z,3276.00
2019-05-29T04:59:40.035Z,3300.00
2019-05-29T05:00:40.025Z,3316.00
2019-05-29T05:01:40.022Z,3336.00
2019-05-29T05:02:40.051Z,3356.00
2019-05-29T05:03:40.035Z,3380.00
2019-05-29T05:04:39.980Z,3400.00
2019-05-29T05:05:39.970Z,3420.00
2019-05-29T05:06:39.957Z,3444.00
2019-05-29T05:07:39.959Z,3468.00
2019-05-29T05:08:40.309Z,3488.00
2019-05-29T05:09:39.962Z,3512.00
2019-05-29T05:10:41.026Z,3532.00
2019-05-29T05:11:39.908Z,3548.00
2019-05-29T05:12:40.249Z,3568.00
2019-05-29T05:13:39.881Z,3584.00
2019-05-29T05:14:39.924Z,3604.00
2019-05-29T05:15:40.219Z,3616.00
2019-05-29T05:16:40.066Z,3632.00
2019-05-29T05:17:40.200Z,3648.00
2019-05-29T05:18:40.344Z,3668.00
2019-05-29T05:19:40.138Z,3692.00
2019-05-29T05:20:40.412Z,3712.00
2019-05-29T05:21:40.274Z,3728.00
2019-05-29T05:22:40.940Z,3748.00
2019-05-29T05:23:40.538Z,3760.00
2019-05-29T05:24:43.503Z,3772.00
2019-05-29T05:25:40.999Z,3784.00
2019-05-29T05:26:40.479Z,3800.00
2019-05-29T05:27:40.635Z,3816.00
2019-05-29T05:28:43.534Z,3832.00
2019-05-29T05:29:41.436Z,3852.00
2019-05-29T05:30:40.818Z,3868.00
2019-05-29T05:31:40.843Z,3884.00
2019-05-29T05:32:40.959Z,3888.00
2019-05-29T05:33:40.587Z,3900.00
2019-05-29T05:34:40.904Z,3908.00
2019-05-29T05:35:41.111Z,3924.00
2019-05-29T05:36:40.889Z,3936.00
2019-05-29T05:37:40.944Z,3952.00
2019-05-29T05:38:40.875Z,3968.00
2019-05-29T05:39:41.092Z,3984.00
2019-05-29T05:40:43.048Z,4004.00
2019-05-29T05:41:39.614Z,4016.00
2019-05-29T05:42:39.588Z,4028.00
2019-05-29T05:43:39.536Z,4036.00
2019-05-29T05:44:39.544Z,4048.00
2019-05-29T05:45:39.538Z,4060.00
2019-05-29T05:46:39.506Z,4068.00
2019-05-29T05:47:53.593Z,4076.00
2019-05-29T05:48:41.517Z,4084.00
2019-05-29T05:49:39.618Z,4088.00
2019-05-29T05:50:39.515Z,4092.00
2019-05-29T05:51:42.800Z,4092.00
2019-05-29T05:52:41.532Z,4100.00
2019-05-29T05:53:39.543Z,4096.00
2019-05-29T05:54:39.602Z,4108.00
2019-05-29T05:55:39.806Z,4116.00
2019-05-29T05:56:39.733Z,4124.00
2019-05-29T05:57:39.723Z,4132.00
2019-05-29T05:58:39.945Z,4140.00
2019-05-29T05:59:39.889Z,4148.00
2019-05-29T06:00:39.923Z,4164.00
2019-05-29T06:01:40.059Z,4176.00
2019-05-29T06:02:40.115Z,4184.00
2019-05-29T06:03:40.611Z,4192.00
2019-05-29T06:04:40.046Z,4196.00
2019-05-29T06:05:40.233Z,4204.00
2019-05-29T06:06:40.268Z,4204.00
2019-05-29T06:07:40.437Z,4208.00
2019-05-29T06:08:40.214Z,4216.00
2019-05-29T06:09:40.436Z,4224.00
2019-05-29T06:10:40.257Z,4232.00
2019-05-29T06:11:40.316Z,4252.00
2019-05-29T06:12:40.494Z,4264.00
2019-05-29T06:13:40.413Z,4276.00
2019-05-29T06:14:40.565Z,4284.00
2019-05-29T06:15:40.543Z,4288.00
2019-05-29T06:16:40.620Z,4296.00
2019-05-29T06:17:39.158Z,4300.00
2019-05-29T06:18:39.207Z,4308.00
2019-05-29T06:19:39.125Z,4316.00
2019-05-29T06:20:39.224Z,4328.00
2019-05-29T06:21:39.110Z,4332.00
2019-05-29T06:22:39.285Z,4336.00
2019-05-29T06:23:39.194Z,4344.00
2019-05-29T06:24:39.083Z,4356.00
2019-05-29T06:25:40.725Z,4368.00
2019-05-29T06:26:39.122Z,4376.00
2019-05-29T06:27:39.324Z,4392.00
2019-05-29T06:28:39.196Z,4416.00
2019-05-29T06:29:39.381Z,4432.00
2019-05-29T06:30:41.289Z,4432.00
2019-05-29T06:31:39.433Z,4436.00
2019-05-29T06:32:39.445Z,4432.00
2019-05-29T06:33:39.482Z,4424.00
2019-05-29T06:34:39.571Z,4428.00
2019-05-29T06:35:39.635Z,4432.00
2019-05-29T06:36:39.608Z,4440.00
2019-05-29T06:37:39.584Z,4464.00
2019-05-29T06:38:40.440Z,4460.00
2019-05-29T06:39:39.647Z,4468.00
2019-05-29T06:40:40.177Z,4476.00
2019-05-29T06:41:40.142Z,4484.00
2019-05-29T06:42:39.866Z,4492.00
2019-05-29T06:43:39.891Z,4500.00
2019-05-29T06:44:39.834Z,4512.00
2019-05-29T06:45:39.952Z,4516.00
2019-05-29T06:46:40.294Z,4524.00
2019-05-29T06:47:40.629Z,4528.00
2019-05-29T06:48:46.159Z,4536.00
2019-05-29T06:49:40.123Z,4540.00
2019-05-29T06:50:39.443Z,4552.00
2019-05-29T06:51:39.315Z,4556.00
2019-05-29T06:52:39.494Z,4560.00
2019-05-29T06:53:39.812Z,4564.00
2019-05-29T06:54:39.997Z,4572.00
2019-05-29T06:55:39.860Z,4576.00
2019-05-29T06:56:39.717Z,4584.00
2019-05-29T06:57:40.129Z,4588.00
2019-05-29T06:58:39.926Z,4596.00
2019-05-29T06:59:38.715Z,4604.00
2019-05-29T07:00:39.391Z,4604.00
2019-05-29T07:01:39.448Z,4608.00
2019-05-29T07:02:38.654Z,4612.00
2019-05-29T07:03:39.692Z,4616.00
2019-05-29T07:04:38.635Z,4612.00
2019-05-29T07:05:39.802Z,4616.00
2019-05-29T07:06:40.590Z,4616.00
2019-05-29T07:07:40.181Z,4624.00
2019-05-29T07:08:44.028Z,4632.00
2019-05-29T07:09:39.596Z,4632.00
2019-05-29T07:10:38.638Z,4636.00
2019-05-29T07:11:39.060Z,4640.00
2019-05-29T07:12:38.524Z,4652.00
2019-05-29T07:13:41.873Z,4656.00
2019-05-29T07:14:40.271Z,4660.00
2019-05-29T07:15:38.704Z,4656.00
2019-05-29T07:16:45.357Z,4652.00
2019-05-29T07:17:40.446Z,4644.00
2019-05-29T07:18:38.636Z,4648.00
2019-05-29T07:19:48.954Z,4656.00
2019-05-29T07:20:40.593Z,4664.00
2019-05-29T07:21:38.865Z,4672.00
2019-05-29T07:22:38.971Z,4668.00
2019-05-29T07:23:38.775Z,4676.00
2019-05-29T07:24:38.827Z,4680.00
2019-05-29T07:25:38.783Z,4684.00
2019-05-29T07:26:38.894Z,4696.00
2019-05-29T07:27:38.829Z,4700.00
2019-05-29T07:28:46.849Z,4704.00
2019-05-29T07:29:39.344Z,4720.00
2019-05-29T07:30:39.150Z,4740.00
2019-05-29T07:31:38.840Z,4756.00
2019-05-29T07:32:40.444Z,4760.00
2019-05-29T07:33:39.000Z,4760.00
2019-05-29T07:34:53.684Z,4756.00
2019-05-29T07:35:39.354Z,4756.00
2019-05-29T07:36:39.778Z,4756.00
2019-05-29T07:37:39.555Z,4768.00
2019-05-29T07:38:39.561Z,4780.00
2019-05-29T07:39:39.376Z,4792.00
2019-05-29T07:40:38.499Z,4812.00
2019-05-29T07:41:39.471Z,4824.00
2019-05-29T07:42:40.161Z,4836.00
2019-05-29T07:43:39.689Z,4840.00
2019-05-29T07:44:38.160Z,4844.00
2019-05-29T07:45:38.167Z,4844.00
2019-05-29T07:46:38.153Z,4848.00
2019-05-29T07:47:38.413Z,4848.00
2019-05-29T07:48:38.483Z,4848.00
2019-05-29T07:50:34.309Z,4848.00
2019-05-29T07:50:40.088Z,4852.00
2019-05-29T07:51:38.252Z,4856.00
2019-05-29T07:52:38.638Z,4856.00
2019-05-29T07:53:38.266Z,4856.00
2019-05-29T07:54:39.841Z,4868.00
2019-05-29T07:55:38.402Z,4872.00
2019-05-29T07:56:38.360Z,4868.00
2019-05-29T07:57:38.828Z,4864.00
2019-05-29T07:58:38.710Z,4864.00
2019-05-29T07:59:38.568Z,4864.00
2019-05-29T08:01:00.992Z,4864.00
2019-05-29T08:01:38.974Z,4864.00
2019-05-29T08:02:39.321Z,4856.00
2019-05-29T08:03:39.219Z,4856.00
2019-05-29T08:04:38.892Z,4864.00
2019-05-29T08:05:39.183Z,4872.00
2019-05-29T08:06:38.952Z,4884.00
2019-05-29T08:07:39.348Z,4892.00
2019-05-29T08:08:39.097Z,4892.00
2019-05-29T08:09:39.227Z,4888.00
2019-05-29T08:10:39.819Z,4892.00
2019-05-29T08:11:37.886Z,4912.00
2019-05-29T08:12:41.657Z,4924.00
2019-05-29T08:13:39.486Z,4936.00
2019-05-29T08:14:37.839Z,4940.00
2019-05-29T08:15:52.108Z,4944.00
2019-05-29T08:16:39.762Z,4956.00
2019-05-29T08:17:37.792Z,4948.00
2019-05-29T08:18:37.803Z,4952.00
2019-05-29T08:19:37.770Z,4952.00
2019-05-29T08:20:37.769Z,4944.00
2019-05-29T08:21:37.798Z,4936.00
2019-05-29T08:22:37.733Z,4932.00
2019-05-29T08:23:37.774Z,4932.00
2019-05-29T08:24:37.735Z,4936.00
2019-05-29T08:25:37.703Z,4940.00
2019-05-29T08:26:37.696Z,4940.00
2019-05-29T08:27:37.738Z,4948.00
2019-05-29T08:28:37.684Z,4940.00
2019-05-29T08:29:37.695Z,4936.00
2019-05-29T08:30:37.690Z,4936.00
2019-05-29T08:31:37.637Z,4932.00
2019-05-29T08:32:37.887Z,4928.00
2019-05-29T08:33:37.669Z,4932.00
2019-05-29T08:34:37.645Z,4936.00
2019-05-29T08:35:37.599Z,4940.00
2019-05-29T08:36:37.753Z,4944.00
2019-05-29T08:37:37.595Z,4944.00
2019-05-29T08:38:37.616Z,4932.00
2019-05-29T08:39:37.598Z,4924.00
2019-05-29T08:40:37.552Z,4916.00
2019-05-29T08:41:37.525Z,4908.00
2019-05-29T08:42:37.541Z,4916.00
2019-05-29T08:43:37.528Z,4924.00
2019-05-29T08:44:37.490Z,4916.00
2019-05-29T08:45:37.538Z,4920.00
2019-05-29T08:46:37.555Z,4920.00
2019-05-29T08:47:37.571Z,4924.00
2019-05-29T08:48:37.461Z,4928.00
2019-05-29T08:49:37.519Z,4932.00
2019-05-29T08:50:37.429Z,4924.00
2019-05-29T08:51:37.411Z,4916.00
2019-05-29T08:52:37.497Z,4908.00
2019-05-29T08:53:37.404Z,4916.00
2019-05-29T08:54:37.451Z,4920.00
2019-05-29T08:55:37.439Z,4920.00
2019-05-29T08:56:37.398Z,4932.00
2019-05-29T08:57:37.427Z,4936.00
2019-05-29T08:58:38.169Z,4932.00
2019-05-29T08:59:37.323Z,4932.00
2019-05-29T09:00:37.366Z,4940.00
2019-05-29T09:01:37.305Z,4940.00
2019-05-29T09:02:37.319Z,4948.00
2019-05-29T09:03:37.358Z,4948.00
2019-05-29T09:04:37.346Z,4952.00
2019-05-29T09:05:37.252Z,4952.00
2019-05-29T09:06:37.293Z,4960.00
2019-05-29T09:07:37.266Z,4964.00
2019-05-29T09:08:37.221Z,4972.00
2019-05-29T09:09:37.247Z,4980.00
2019-05-29T09:10:37.275Z,4984.00
2019-05-29T09:11:37.194Z,4996.00
2019-05-29T09:12:37.182Z,5000.00
2019-05-29T09:13:37.179Z,5004.00
2019-05-29T09:14:37.233Z,5008.00
2019-05-29T09:15:37.145Z,5012.00
2019-05-29T09:16:37.133Z,5012.00
2019-05-29T09:17:37.137Z,5024.00
2019-05-29T09:18:37.152Z,5032.00
2019-05-29T09:19:37.100Z,5040.00
2019-05-29T09:21:00.894Z,5040.00
2019-05-29T09:21:38.089Z,5044.00
2019-05-29T09:22:37.069Z,5044.00
2019-05-29T09:23:37.073Z,5040.00
2019-05-29T09:24:37.048Z,5048.00
2019-05-29T09:25:37.119Z,5056.00
2019-05-29T09:26:37.021Z,5060.00
2019-05-29T09:27:37.041Z,5068.00
2019-05-29T09:28:37.006Z,5072.00
2019-05-29T09:29:37.022Z,5072.00
2019-05-29T09:30:36.974Z,5076.00
2019-05-29T09:31:37.012Z,5076.00
2019-05-29T09:32:49.551Z,5084.00
2019-05-29T09:33:37.942Z,5092.00
2019-05-29T09:34:36.953Z,5100.00
2019-05-29T09:35:36.922Z,5104.00
2019-05-29T09:36:36.958Z,5104.00
2019-05-29T09:37:36.924Z,5108.00
2019-05-29T09:38:37.003Z,5112.00
2019-05-29T09:39:36.873Z,5120.00
2019-05-29T09:40:36.903Z,5128.00
2019-05-29T09:41:36.916Z,5132.00
2019-05-29T09:42:36.890Z,5136.00
2019-05-29T09:43:36.834Z,5144.00
2019-05-29T09:44:39.299Z,5144.00
2019-05-29T09:45:36.826Z,5156.00
2019-05-29T09:46:36.798Z,5160.00
2019-05-29T09:47:36.924Z,5164.00
2019-05-29T09:48:49.232Z,5164.00
2019-05-29T09:49:37.762Z,5168.00
2019-05-29T09:50:49.547Z,5176.00
2019-05-29T09:51:37.772Z,5188.00
2019-05-29T09:52:36.790Z,5204.00
2019-05-29T09:53:36.731Z,5220.00
2019-05-29T09:54:36.885Z,5236.00
2019-05-29T09:55:36.799Z,5252.00
2019-05-29T09:56:36.688Z,5268.00
2019-05-29T09:57:36.947Z,5284.00
2019-05-29T09:58:36.662Z,5300.00
2019-05-29T09:59:36.782Z,5316.00
2019-05-29T10:00:36.647Z,5332.00
2019-05-29T10:01:37.406Z,5348.00
2019-05-29T10:02:36.921Z,5364.00
2019-05-29T10:03:36.602Z,5384.00
2019-05-29T10:04:36.612Z,5404.00
2019-05-29T10:05:36.584Z,5428.00
2019-05-29T10:06:36.577Z,5448.00
2019-05-29T10:07:36.619Z,5468.00
2019-05-29T10:08:36.624Z,5492.00
2019-05-29T10:09:36.552Z,5516.00
2019-05-29T10:10:36.552Z,5540.00
2019-05-29T10:11:36.546Z,5564.00
2019-05-29T10:12:36.514Z,5580.00
2019-05-29T10:13:36.530Z,5604.00
2019-05-29T10:14:36.604Z,5624.00
2019-05-29T10:15:36.512Z,5648.00
2019-05-29T10:16:36.488Z,5676.00
2019-05-29T10:17:47.975Z,5700.00
2019-05-29T10:18:37.465Z,5716.00
2019-05-29T10:19:36.451Z,5736.00
2019-05-29T10:20:36.435Z,5748.00
2019-05-29T10:21:40.543Z,5772.00
2019-05-29T10:22:36.512Z,5792.00
2019-05-29T10:23:36.434Z,5816.00
2019-05-29T10:24:36.394Z,5832.00
2019-05-29T10:25:36.504Z,5852.00
2019-05-29T10:26:36.399Z,5876.00
2019-05-29T10:27:36.343Z,5900.00
2019-05-29T10:28:50.359Z,5916.00
2019-05-29T10:29:37.329Z,5940.00
2019-05-29T10:30:36.349Z,5964.00
2019-05-29T10:31:36.309Z,5988.00
2019-05-29T10:32:36.351Z,6004.00
2019-05-29T10:33:36.274Z,6024.00
2019-05-29T10:34:36.283Z,6048.00
2019-05-29T10:35:36.248Z,6072.00
2019-05-29T10:36:36.316Z,6096.00
2019-05-29T10:37:36.245Z,6112.00
2019-05-29T10:38:36.251Z,6136.00
2019-05-29T10:39:36.208Z,6156.00
2019-05-29T10:40:36.256Z,6180.00
2019-05-29T10:41:36.179Z,6204.00
2019-05-29T10:42:36.203Z,6240.00
2019-05-29T10:43:36.197Z,6264.00
2019-05-29T10:44:36.227Z,6296.00
2019-05-29T10:45:36.154Z,6320.00
2019-05-29T10:46:36.136Z,6344.00
2019-05-29T10:47:36.855Z,6372.00
2019-05-29T10:48:36.120Z,6396.00
2019-05-29T10:49:36.133Z,6424.00
2019-05-29T10:50:36.081Z,6452.00
2019-05-29T10:51:36.079Z,6480.00
2019-05-29T10:52:36.063Z,6508.00
2019-05-29T10:53:36.098Z,6532.00
2019-05-29T10:54:39.123Z,6564.00
2019-05-29T10:55:36.078Z,6596.00
2019-05-29T10:56:36.101Z,6624.00
2019-05-29T10:57:36.063Z,6664.00
2019-05-29T10:58:48.583Z,6696.00
2019-05-29T10:59:36.982Z,6788.00
2019-05-29T11:00:38.855Z,6880.00
2019-05-29T11:01:35.979Z,6904.00
2019-05-29T11:02:36.032Z,6892.00
2019-05-29T11:03:35.944Z,6964.00
2019-05-29T11:04:36.008Z,6964.00
2019-05-29T11:05:36.001Z,6940.00
2019-05-29T11:06:40.191Z,6964.00
2019-05-29T11:07:36.905Z,7000.00
2019-05-29T11:08:35.887Z,7036.00
2019-05-29T11:09:44.426Z,7072.00
2019-05-29T11:10:36.967Z,7108.00
2019-05-29T11:11:35.888Z,7144.00
2019-05-29T11:12:39.289Z,7176.00
2019-05-29T11:13:35.842Z,7212.00
2019-05-29T11:14:35.872Z,7252.00
2019-05-29T11:15:35.877Z,7292.00
2019-05-29T11:16:39.583Z,7336.00
2019-05-29T11:17:35.901Z,7380.00
2019-05-29T11:18:35.852Z,7428.00
2019-05-29T11:19:35.827Z,7468.00
2019-05-29T11:20:35.764Z,7516.00
2019-05-29T11:21:35.743Z,7564.00
2019-05-29T11:22:35.877Z,7604.00
2019-05-29T11:23:35.715Z,7648.00
2019-05-29T11:24:35.745Z,7692.00
2019-05-29T11:25:35.710Z,7740.00
2019-05-29T11:26:35.728Z,7792.00
2019-05-29T11:27:35.680Z,7840.00
2019-05-29T11:28:35.663Z,7884.00
2019-05-29T11:29:35.646Z,7924.00
2019-05-29T11:30:35.712Z,7964.00
2019-05-29T11:31:35.704Z,8004.00
2019-05-29T11:32:35.641Z,8044.00
2019-05-29T11:33:35.604Z,8092.00
2019-05-29T11:34:35.605Z,8140.00
2019-05-29T11:35:35.584Z,8184.00
2019-05-29T11:36:35.610Z,8232.00
2019-05-29T11:37:35.609Z,8284.00
2019-05-29T11:38:35.639Z,8328.00
2019-05-29T11:39:35.545Z,8380.00
2019-05-29T11:40:35.825Z,8424.00
2019-05-29T11:41:35.612Z,8476.00
2019-05-29T11:42:35.537Z,8524.00
2019-05-29T11:43:35.586Z,8568.00
2019-05-29T11:44:35.506Z,8628.00
2019-05-29T11:45:36.084Z,8692.00
2019-05-29T11:46:35.575Z,8748.00
2019-05-29T11:47:35.456Z,8804.00
2019-05-29T11:48:35.469Z,8860.00
2019-05-29T11:49:35.573Z,8916.00
2019-05-29T11:50:35.428Z,8972.00
2019-05-29T11:51:35.412Z,9028.00
2019-05-29T11:52:42.843Z,9080.00
2019-05-29T11:53:36.395Z,9144.00
2019-05-29T11:54:35.419Z,9200.00
2019-05-29T11:55:35.374Z,9272.00
2019-05-29T11:56:35.359Z,9360.00
2019-05-29T11:57:39.458Z,9448.00
2019-05-29T11:58:35.362Z,9528.00
2019-05-29T11:59:35.425Z,9596.00
2019-05-29T12:00:35.321Z,9652.00
2019-05-29T12:01:49.606Z,9708.00
2019-05-29T12:02:36.339Z,9772.00
2019-05-29T12:03:35.300Z,9844.00
2019-05-29T12:04:35.273Z,9928.00
2019-05-29T12:05:35.273Z,10024.00
2019-05-29T12:06:35.333Z,10112.00
2019-05-29T12:07:35.244Z,10204.00
2019-05-29T12:08:35.309Z,10284.00
2019-05-29T12:09:35.521Z,10360.00
2019-05-29T12:10:35.252Z,10436.00
2019-05-29T12:11:35.196Z,10496.00
2019-05-29T12:12:35.179Z,10548.00
2019-05-29T12:13:35.176Z,10600.00
2019-05-29T12:14:55.632Z,10676.00
2019-05-29T12:15:36.327Z,10760.00
2019-05-29T12:16:35.166Z,10836.00
2019-05-29T12:17:35.416Z,10904.00
2019-05-29T12:18:35.139Z,10984.00
2019-05-29T12:19:35.165Z,11044.00
2019-05-29T12:20:35.105Z,11072.00
2019-05-29T12:21:35.086Z,11120.00
2019-05-29T12:22:35.127Z,11200.00
2019-05-29T12:23:35.903Z,11208.00